Time;durP1;ratioP1;P1;durP2;ratioP2;P2;SDS_P1;SDS_P2;PMS_P1;PMS_P2;Temp;Humidity;BMP_temperature;BMP_pressure;BME280_temperature;BME280_humidity;BME280_pressure;Samples;Min_cycle;Max_cycle;Signal;HPM_P1;HPM_P2
2024/03/10 00:00:20;;;;;;;40.33;22.88;;;;;;;;;;5092977;28;20046;-73
2024/03/10 00:02:46;;;;;;;42.35;22.58;;;;;;;;;;5074513;28;20376;-73
2024/03/10 00:05:12;;;;;;;35.15;22.02;;;;;;;;;;5092693;28;20108;-73
2024/03/10 00:07:44;;;;;;;38.45;22.05;;;;;;;;;;5092241;28;20039;-73
2024/03/10 00:10:10;;;;;;;39.35;21.70;;;;;;;;;;5092968;28;20032;-69
2024/03/10 00:12:36;;;;;;;37.67;22.45;;;;;;;;;;5092508;28;20070;-69
2024/03/10 00:15:03;;;;;;;34.58;21.58;;;;;;;;;;5092504;28;20063;-73
2024/03/10 00:17:29;;;;;;;36.60;21.48;;;;;;;;;;5093661;28;20031;-66
2024/03/10 00:19:54;;;;;;;37.95;22.88;;;;;;;;;;5093827;28;20028;-65
2024/03/10 00:22:20;;;;;;;41.95;24.77;;;;;;;;;;5093938;28;20021;-65
2024/03/10 00:24:45;;;;;;;36.95;22.10;;;;;;;;;;5093971;28;20082;-65
2024/03/10 00:27:13;;;;;;;37.55;22.50;;;;;;;;;;5094092;28;20421;-65
2024/03/10 00:29:39;;;;;;;39.20;23.23;;;;;;;;;;5093669;28;20035;-65
2024/03/10 00:32:06;;;;;;;38.30;22.30;;;;;;;;;;5075796;28;20016;-71
2024/03/10 00:34:39;;;;;;;39.72;23.00;;;;;;;;;;5093583;28;20028;-72
2024/03/10 00:37:05;;;;;;;37.63;23.08;;;;;;;;;;5075650;28;20123;-73
2024/03/10 00:39:34;;;;;;;35.83;22.13;;;;;;;;;;5094066;28;20138;-72
2024/03/10 00:41:59;;;;;;;35.92;21.58;;;;;;;;;;5093669;28;20058;-72
2024/03/10 00:44:26;;;;;;;61.05;34.10;;;;;;;;;;5059652;28;20047;-66
2024/03/10 00:46:53;;;;;;;64.70;39.58;;;;;;;;;;5093909;28;20016;-72
2024/03/10 00:49:18;;;;;;;33.97;21.13;;;;;;;;;;5075832;28;20039;-72
2024/03/10 00:51:45;;;;;;;33.17;19.92;;;;;;;;;;5093592;28;20032;-73
2024/03/10 00:54:11;;;;;;;53.08;33.40;;;;;;;;;;5092409;28;20048;-72
2024/03/10 00:56:37;;;;;;;67.63;44.53;;;;;;;;;;5092769;28;20069;-73
2024/03/10 00:59:02;;;;;;;42.03;25.52;;;;;;;;;;5092322;28;20032;-65
2024/03/10 01:01:28;;;;;;;33.08;19.92;;;;;;;;;;5091894;28;20035;-65
2024/03/10 01:03:53;;;;;;;36.05;23.30;;;;;;;;;;5091730;28;20368;-66
2024/03/10 01:06:19;;;;;;;33.58;21.10;;;;;;;;;;5092286;28;20482;-68
2024/03/10 01:08:44;;;;;;;35.17;20.90;;;;;;;;;;5091973;28;20111;-67
2024/03/10 01:11:11;;;;;;;55.40;32.22;;;;;;;;;;5092005;28;20032;-67
2024/03/10 01:13:37;;;;;;;47.90;29.30;;;;;;;;;;5095787;28;20024;-67
2024/03/10 01:16:03;;;;;;;28.98;19.08;;;;;;;;;;5077834;28;20082;-73
2024/03/10 01:18:29;;;;;;;28.80;18.15;;;;;;;;;;5095942;28;20032;-68
2024/03/10 01:20:54;;;;;;;29.25;17.90;;;;;;;;;;5095360;28;20016;-68
2024/03/10 01:23:19;;;;;;;30.27;18.77;;;;;;;;;;5095219;28;20205;-73
2024/03/10 01:25:45;;;;;;;29.80;18.35;;;;;;;;;;5095669;28;20456;-73
2024/03/10 01:28:11;;;;;;;32.33;21.00;;;;;;;;;;5096957;28;20467;-72
2024/03/10 01:30:38;;;;;;;32.33;19.27;;;;;;;;;;5096412;28;20476;-75
2024/03/10 01:33:04;;;;;;;31.05;19.50;;;;;;;;;;5096392;28;20024;-74
2024/03/10 01:35:30;;;;;;;29.65;18.85;;;;;;;;;;5096993;28;20120;-74
2024/03/10 01:37:55;;;;;;;29.73;19.55;;;;;;;;;;5078741;28;20117;-74
2024/03/10 01:40:21;;;;;;;28.77;18.15;;;;;;;;;;5096425;28;20479;-74
2024/03/10 01:42:56;;;;;;;30.30;17.85;;;;;;;;;;5096384;28;20089;-72
2024/03/10 01:45:22;;;;;;;32.00;19.38;;;;;;;;;;5096401;28;20026;-71
2024/03/10 01:47:47;;;;;;;29.50;19.15;;;;;;;;;;5096454;28;20107;-73
2024/03/10 01:50:13;;;;;;;30.42;19.48;;;;;;;;;;5096615;28;20382;-74
2024/03/10 01:52:39;;;;;;;30.30;19.13;;;;;;;;;;5096446;28;20066;-73
2024/03/10 01:55:06;;;;;;;32.20;20.13;;;;;;;;;;5077984;28;20044;-73
2024/03/10 01:57:32;;;;;;;29.88;19.13;;;;;;;;;;5096513;28;20039;-68
2024/03/10 01:59:57;;;;;;;30.73;20.00;;;;;;;;;;5096387;28;20028;-68
2024/03/10 02:02:23;;;;;;;30.88;19.40;;;;;;;;;;5078175;28;20387;-68
2024/03/10 02:04:49;;;;;;;27.45;17.52;;;;;;;;;;5078303;28;20102;-71
2024/03/10 02:07:16;;;;;;;28.05;18.17;;;;;;;;;;5078300;28;20049;-70
2024/03/10 02:09:44;;;;;;;29.40;17.98;;;;;;;;;;5096123;28;20028;-70
2024/03/10 02:12:10;;;;;;;27.08;17.90;;;;;;;;;;5077813;28;20067;-71
2024/03/10 02:14:37;;;;;;;32.05;18.17;;;;;;;;;;5096005;28;20439;-67
2024/03/10 02:17:03;;;;;;;28.70;17.20;;;;;;;;;;5095525;28;20028;-65
2024/03/10 02:20:01;;;;;;;28.35;19.08;;;;;;;;;;5097516;22;20024;-73
2024/03/10 02:22:29;;;;;;;27.95;17.40;;;;;;;;;;5053658;28;20561;-73
2024/03/10 02:24:59;;;;;;;28.83;17.90;;;;;;;;;;5053616;28;20128;-74
2024/03/10 02:27:25;;;;;;;23.55;17.20;;;;;;;;;;5055456;28;20029;-73
2024/03/10 02:30:05;;;;;;;26.70;16.88;;;;;;;;;;5055371;28;20032;-74
2024/03/10 02:48:54;;;;;;;24.25;15.32;;;;;;;;;;5054774;28;20450;-73
2024/03/10 02:51:20;;;;;;;25.25;16.15;;;;;;;;;;5054721;28;20033;-73
2024/03/10 02:53:46;;;;;;;25.83;15.40;;;;;;;;;;5035871;28;20063;-73
2024/03/10 02:56:13;;;;;;;28.27;17.45;;;;;;;;;;5052646;28;20049;-71
2024/03/10 02:58:39;;;;;;;28.30;16.83;;;;;;;;;;5034603;28;20068;-73
2024/03/10 03:01:05;;;;;;;27.27;16.70;;;;;;;;;;5052540;28;20039;-73
2024/03/10 03:03:36;;;;;;;24.80;16.05;;;;;;;;;;5053000;28;20033;-73
2024/03/10 03:06:02;;;;;;;23.90;15.70;;;;;;;;;;5051803;28;20055;-73
2024/03/10 03:08:32;;;;;;;25.17;16.38;;;;;;;;;;5052926;28;20036;-73
2024/03/10 03:10:57;;;;;;;;;;;;;;;;;;5052297;28;20430;-65
2024/03/10 03:13:28;;;;;;;24.93;17.03;;;;;;;;;;5053322;28;19999;-73
2024/03/10 03:15:54;;;;;;;26.38;16.42;;;;;;;;;;5053462;28;20502;-74
2024/03/10 03:18:19;;;;;;;26.75;17.58;;;;;;;;;;5052339;28;20025;-71
2024/03/10 03:20:45;;;;;;;29.55;18.70;;;;;;;;;;5050592;28;20481;-71
2024/03/10 03:23:10;;;;;;;28.13;17.70;;;;;;;;;;5052003;28;20028;-71
2024/03/10 03:25:35;;;;;;;25.15;16.80;;;;;;;;;;5052055;28;20029;-71
2024/03/10 03:28:01;;;;;;;28.23;18.05;;;;;;;;;;5052420;28;20031;-73
2024/03/10 03:30:31;;;;;;;26.63;17.10;;;;;;;;;;5053302;28;20135;-71
2024/03/10 03:32:57;;;;;;;;;;;;;;;;;;5054807;28;20037;-71
2024/03/10 03:35:22;;;;;;;25.35;16.40;;;;;;;;;;5054716;28;19958;-71
2024/03/10 03:37:47;;;;;;;27.20;17.23;;;;;;;;;;5036977;28;20025;-71
2024/03/10 03:40:13;;;;;;;32.78;18.77;;;;;;;;;;5054104;28;20385;-71
2024/03/10 03:42:38;;;;;;;25.92;18.92;;;;;;;;;;5053821;28;20056;-73
2024/03/10 03:45:04;;;;;;;27.38;17.88;;;;;;;;;;5052845;28;20106;-73
2024/03/10 03:47:30;;;;;;;28.17;17.23;;;;;;;;;;5052513;28;20067;-73
2024/03/10 03:49:55;;;;;;;27.27;17.10;;;;;;;;;;5052521;28;20064;-71
2024/03/10 03:52:21;;;;;;;25.75;17.70;;;;;;;;;;5053690;28;20040;-71
2024/03/10 03:54:48;;;;;;;24.63;16.52;;;;;;;;;;5054193;28;20032;-70
2024/03/10 03:57:14;;;;;;;29.55;16.15;;;;;;;;;;5053531;28;20044;-66
2024/03/10 03:59:40;;;;;;;24.90;16.50;;;;;;;;;;5053611;28;20025;-66
2024/03/10 04:02:06;;;;;;;23.13;15.20;;;;;;;;;;5053796;28;20043;-66
2024/03/10 04:04:31;;;;;;;28.13;16.85;;;;;;;;;;5053725;28;20092;-66
2024/03/10 04:06:56;;;;;;;31.90;19.02;;;;;;;;;;5053481;28;20380;-64
2024/03/10 04:09:22;;;;;;;26.38;15.77;;;;;;;;;;5053757;28;20039;-64
2024/03/10 04:11:47;;;;;;;26.52;16.40;;;;;;;;;;5053707;28;20033;-62
2024/03/10 04:14:13;;;;;;;24.65;16.30;;;;;;;;;;5053688;28;20037;-65
2024/03/10 04:16:39;;;;;;;25.58;16.88;;;;;;;;;;5053688;28;20044;-64
2024/03/10 04:19:04;;;;;;;23.95;15.55;;;;;;;;;;5035556;28;20393;-63
2024/03/10 04:21:33;;;;;;;24.95;15.52;;;;;;;;;;5068632;28;20048;-62
2024/03/10 04:23:59;;;;;;;23.08;14.80;;;;;;;;;;5068781;28;20025;-62
2024/03/10 04:26:25;;;;;;;21.55;14.25;;;;;;;;;;5053584;28;20036;-62
2024/03/10 04:28:50;;;;;;;23.98;15.65;;;;;;;;;;5053297;28;20389;-62
2024/03/10 04:31:16;;;;;;;24.63;14.88;;;;;;;;;;5053276;28;20029;-68
2024/03/10 04:33:42;;;;;;;24.40;14.40;;;;;;;;;;5053527;28;20040;-68
2024/03/10 04:36:08;;;;;;;22.00;14.65;;;;;;;;;;5053184;28;20025;-69
2024/03/10 04:38:34;;;;;;;23.42;14.52;;;;;;;;;;5053135;28;20378;-68
2024/03/10 04:40:59;;;;;;;24.15;15.80;;;;;;;;;;5053471;28;20025;-68
2024/03/10 04:43:25;;;;;;;23.45;15.77;;;;;;;;;;5052022;28;20127;-69
2024/03/10 04:45:53;;;;;;;21.95;15.18;;;;;;;;;;5053165;28;20029;-69
2024/03/10 04:48:18;;;;;;;26.02;16.58;;;;;;;;;;5055505;28;20033;-69
2024/03/10 04:50:44;;;;;;;26.25;16.38;;;;;;;;;;5057323;28;20033;-69
2024/03/10 04:53:09;;;;;;;22.10;14.43;;;;;;;;;;5056949;28;20532;-69
2024/03/10 04:55:34;;;;;;;20.30;14.05;;;;;;;;;;5056332;28;20125;-69
2024/03/10 04:58:00;;;;;;;19.88;14.48;;;;;;;;;;5072598;28;20025;-72
2024/03/10 05:00:25;;;;;;;22.63;14.95;;;;;;;;;;5056808;28;20032;-70
2024/03/10 05:02:51;;;;;;;21.88;14.32;;;;;;;;;;5057079;28;20048;-69
2024/03/10 05:05:16;;;;;;;23.98;14.93;;;;;;;;;;5057021;28;20033;-72
2024/03/10 05:07:42;;;;;;;19.00;13.77;;;;;;;;;;5056618;28;20029;-72
2024/03/10 05:10:08;;;;;;;20.58;15.25;;;;;;;;;;5056922;28;20025;-73
2024/03/10 05:12:35;;;;;;;23.05;14.82;;;;;;;;;;5057153;28;20041;-74
2024/03/10 05:15:02;;;;;;;20.00;13.77;;;;;;;;;;5038671;28;20038;-74
2024/03/10 05:17:29;;;;;;;21.00;14.52;;;;;;;;;;5056735;28;20048;-74
2024/03/10 05:19:55;;;;;;;20.50;13.90;;;;;;;;;;5056267;28;20039;-74
2024/03/10 05:22:20;;;;;;;21.13;13.90;;;;;;;;;;5057011;28;20025;-73
2024/03/10 05:24:45;;;;;;;20.45;14.93;;;;;;;;;;5056387;28;20029;-73
2024/03/10 05:27:11;;;;;;;21.48;14.55;;;;;;;;;;5055209;28;20481;-73
2024/03/10 05:29:36;;;;;;;21.98;14.95;;;;;;;;;;5057175;28;20112;-72
2024/03/10 05:32:04;;;;;;;21.05;14.65;;;;;;;;;;5056281;28;20079;-72
2024/03/10 05:34:30;;;;;;;19.55;14.38;;;;;;;;;;5056211;28;20029;-72
2024/03/10 05:36:55;;;;;;;22.45;14.30;;;;;;;;;;5056668;28;20410;-72
2024/03/10 05:39:21;;;;;;;19.70;13.77;;;;;;;;;;5071809;28;20025;-69
2024/03/10 05:41:47;;;;;;;19.80;14.45;;;;;;;;;;5056361;28;20433;-69
2024/03/10 05:44:14;;;;;;;19.27;13.38;;;;;;;;;;5056612;28;20033;-69
2024/03/10 05:46:39;;;;;;;19.08;13.45;;;;;;;;;;5055087;28;20051;-67
2024/03/10 05:49:06;;;;;;;18.88;13.38;;;;;;;;;;5055900;28;20392;-65
2024/03/10 05:51:31;;;;;;;17.85;13.73;;;;;;;;;;5056457;28;20124;-66
2024/03/10 05:53:57;;;;;;;19.33;13.82;;;;;;;;;;5056360;28;20152;-66
2024/03/10 05:56:22;;;;;;;19.45;13.05;;;;;;;;;;5054657;28;20511;-66
2024/03/10 05:58:48;;;;;;;17.55;12.88;;;;;;;;;;5055548;28;20503;-66
2024/03/10 06:01:15;;;;;;;17.55;13.05;;;;;;;;;;5055663;28;20040;-65
2024/03/10 06:03:41;;;;;;;18.67;13.57;;;;;;;;;;5055678;28;20037;-65
2024/03/10 06:06:09;;;;;;;18.30;13.57;;;;;;;;;;5056146;28;20036;-65
2024/03/10 06:08:35;;;;;;;18.92;12.77;;;;;;;;;;5055847;28;20056;-65
2024/03/10 06:11:01;;;;;;;18.42;13.23;;;;;;;;;;5055504;28;20045;-64
2024/03/10 06:13:26;;;;;;;18.33;13.38;;;;;;;;;;5055743;28;20033;-66
2024/03/10 06:15:52;;;;;;;66.00;41.78;;;;;;;;;;5037554;28;20370;-66
2024/03/10 06:26:54;;;;;;;26.88;20.90;;;;;;;;;;5025984;28;20029;-73
2024/03/10 06:29:21;;;;;;;21.63;15.68;;;;;;;;;;5054464;28;20033;-75
2024/03/10 06:31:48;;;;;;;19.67;14.25;;;;;;;;;;5037531;28;20056;-66
2024/03/10 06:34:13;;;;;;;19.65;14.15;;;;;;;;;;5039636;28;20033;-77
2024/03/10 06:36:39;;;;;;;17.42;13.23;;;;;;;;;;5056823;28;20040;-69
2024/03/10 06:39:05;;;;;;;18.48;14.10;;;;;;;;;;5037091;28;20112;-67
2024/03/10 06:41:31;;;;;;;18.83;14.68;;;;;;;;;;5054593;28;20373;-69
2024/03/10 06:43:56;;;;;;;18.00;12.13;;;;;;;;;;5054509;28;20029;-69
2024/03/10 06:46:27;;;;;;;16.05;12.80;;;;;;;;;;5036336;28;20049;-71
2024/03/10 06:48:52;;;;;;;;;;;;;;;;;;5055015;28;20063;-66
2024/03/10 06:51:19;;;;;;;18.30;12.63;;;;;;;;;;5054653;28;19943;-64
2024/03/10 06:53:45;;;;;;;17.40;13.23;;;;;;;;;;5036265;28;20268;-64
2024/03/10 06:56:10;;;;;;;20.88;12.88;;;;;;;;;;5054071;28;20431;-62
2024/03/10 06:58:35;;;;;;;19.52;13.25;;;;;;;;;;5054033;28;20439;-62
2024/03/10 07:01:05;;;;;;;18.63;13.23;;;;;;;;;;5054842;28;20043;-64
2024/03/10 07:03:32;;;;;;;18.10;12.98;;;;;;;;;;5054839;28;20476;-62
2024/03/10 07:06:00;;;;;;;19.05;13.77;;;;;;;;;;5054711;28;20025;-63
2024/03/10 07:08:26;;;;;;;15.75;11.65;;;;;;;;;;5036493;28;20032;-63
2024/03/10 07:10:51;;;;;;;16.90;12.77;;;;;;;;;;5054093;28;20020;-63
2024/03/10 07:13:18;;;;;;;19.13;13.18;;;;;;;;;;5036546;28;20032;-63
2024/03/10 07:15:44;;;;;;;15.13;11.57;;;;;;;;;;5054301;28;20114;-64
2024/03/10 07:18:10;;;;;;;18.75;13.25;;;;;;;;;;5054405;28;20032;-69
2024/03/10 07:20:35;;;;;;;19.35;12.68;;;;;;;;;;5054185;28;20064;-69
2024/03/10 07:23:00;;;;;;;16.60;13.50;;;;;;;;;;5054190;28;20021;-68
2024/03/10 07:25:29;;;;;;;18.27;12.82;;;;;;;;;;5054126;28;20028;-69
2024/03/10 07:27:54;;;;;;;17.75;11.07;;;;;;;;;;5053705;28;20032;-69
2024/03/10 07:30:21;;;;;;;15.40;11.95;;;;;;;;;;5053571;28;20481;-68
2024/03/10 07:32:47;;;;;;;17.48;10.85;;;;;;;;;;5054315;28;20425;-69
2024/03/10 07:35:13;;;;;;;16.92;11.15;;;;;;;;;;5053777;28;20112;-69
2024/03/10 07:37:38;;;;;;;16.67;11.02;;;;;;;;;;5053794;28;20040;-69
2024/03/10 07:40:15;;;;;;;17.33;12.70;;;;;;;;;;5035976;28;20497;-69
2024/03/10 07:42:43;;;;;;;15.82;11.35;;;;;;;;;;5053621;28;20039;-69
2024/03/10 07:45:12;;;;;;;15.75;11.25;;;;;;;;;;5035919;28;20032;-69
2024/03/10 07:47:41;;;;;;;31.30;16.85;;;;;;;;;;5053695;28;20032;-69
2024/03/10 07:50:07;;;;;;;35.80;20.00;;;;;;;;;;5053957;28;20079;-69
2024/03/10 07:52:32;;;;;;;20.45;14.15;;;;;;;;;;5036094;28;20037;-69
2024/03/10 07:54:59;;;;;;;24.77;17.35;;;;;;;;;;5053783;28;20033;-69
2024/03/10 07:57:24;;;;;;;19.33;12.85;;;;;;;;;;5035488;28;20044;-67
2024/03/10 07:59:50;;;;;;;42.38;23.05;;;;;;;;;;5035884;28;20033;-66
2024/03/10 08:02:15;;;;;;;15.18;12.10;;;;;;;;;;5053827;28;20036;-66
2024/03/10 08:04:40;;;;;;;14.98;11.68;;;;;;;;;;5035900;28;20469;-66
2024/03/10 08:07:07;;;;;;;15.65;12.32;;;;;;;;;;5053483;28;20377;-66
2024/03/10 08:09:33;;;;;;;20.20;15.65;;;;;;;;;;5035303;28;20032;-66
2024/03/10 08:11:58;;;;;;;18.27;13.93;;;;;;;;;;5053287;28;20104;-66
2024/03/10 08:14:24;;;;;;;51.03;38.15;;;;;;;;;;5053823;28;20461;-69
2024/03/10 08:16:49;;;;;;;66.97;46.05;;;;;;;;;;5053682;28;20115;-69
2024/03/10 08:19:15;;;;;;;17.20;13.43;;;;;;;;;;5053666;28;20108;-70
2024/03/10 08:21:40;;;;;;;68.70;44.72;;;;;;;;;;5054555;28;20481;-70
2024/03/10 08:24:09;;;;;;;36.30;23.98;;;;;;;;;;5039508;28;20029;-69
2024/03/10 08:26:35;;;;;;;22.63;17.02;;;;;;;;;;5056409;28;20029;-69
2024/03/10 08:29:02;;;;;;;31.70;27.73;;;;;;;;;;5039889;28;20032;-69
2024/03/10 08:31:27;;;;;;;34.20;27.17;;;;;;;;;;5057292;28;20033;-73
2024/03/10 08:33:53;;;;;;;11.80;9.82;;;;;;;;;;5057388;28;20040;-73
2024/03/10 08:36:18;;;;;;;13.77;10.60;;;;;;;;;;5057502;28;20074;-73
2024/03/10 08:38:43;;;;;;;13.98;10.60;;;;;;;;;;5057929;28;20385;-73
2024/03/10 08:41:09;;;;;;;12.25;10.43;;;;;;;;;;5039651;28;20029;-69
2024/03/10 08:43:34;;;;;;;19.33;15.80;;;;;;;;;;5057542;28;20020;-72
2024/03/10 08:46:02;;;;;;;18.48;13.00;;;;;;;;;;5039542;28;20033;-71
2024/03/10 08:48:28;;;;;;;10.60;9.40;;;;;;;;;;5039892;28;20039;-70
2024/03/10 08:50:53;;;;;;;18.58;10.93;;;;;;;;;;5056289;28;20037;-70
2024/03/10 08:53:18;;;;;;;11.98;10.70;;;;;;;;;;5056231;28;20489;-72
2024/03/10 08:55:47;;;;;;;21.63;14.55;;;;;;;;;;5055705;28;20456;-70
2024/03/10 08:58:12;;;;;;;17.52;14.00;;;;;;;;;;5054625;28;20064;-70
2024/03/10 09:00:38;;;;;;;22.77;17.33;;;;;;;;;;5053715;28;20056;-70
2024/03/10 09:03:04;;;;;;;19.45;16.80;;;;;;;;;;5036281;28;20029;-71
2024/03/10 09:05:30;;;;;;;74.97;51.05;;;;;;;;;;5053819;28;20043;-71
2024/03/10 09:07:56;;;;;;;57.97;40.45;;;;;;;;;;5054616;28;20037;-71
2024/03/10 09:10:23;;;;;;;31.55;19.25;;;;;;;;;;5037030;28;20032;-70
2024/03/10 09:12:50;;;;;;;18.95;14.52;;;;;;;;;;5055782;28;20075;-72
2024/03/10 09:15:15;;;;;;;21.48;13.23;;;;;;;;;;5038816;28;20098;-71
2024/03/10 09:17:44;;;;;;;25.15;19.58;;;;;;;;;;5056762;28;20036;-71
2024/03/10 09:20:11;;;;;;;19.50;14.93;;;;;;;;;;5056579;28;20033;-70
2024/03/10 09:22:39;;;;;;;16.33;10.90;;;;;;;;;;5056618;28;20029;-71
2024/03/10 09:25:06;;;;;;;22.20;15.52;;;;;;;;;;5056719;28;20036;-71
2024/03/10 09:27:32;;;;;;;15.57;11.27;;;;;;;;;;5056696;28;20035;-71
2024/03/10 09:29:58;;;;;;;13.95;9.40;;;;;;;;;;5038466;28;20379;-71
2024/03/10 09:32:26;;;;;;;15.65;11.80;;;;;;;;;;5057316;28;20021;-72
2024/03/10 09:34:53;;;;;;;12.88;9.85;;;;;;;;;;5040315;28;20033;-71
2024/03/10 09:37:19;;;;;;;16.40;12.93;;;;;;;;;;5056929;28;20095;-71
2024/03/10 09:39:44;;;;;;;12.68;9.18;;;;;;;;;;5056450;28;20025;-71
2024/03/10 09:42:13;;;;;;;13.10;10.13;;;;;;;;;;5056113;28;20116;-71
2024/03/10 09:44:40;;;;;;;17.17;11.35;;;;;;;;;;5056066;28;20075;-71
2024/03/10 09:47:06;;;;;;;16.00;9.55;;;;;;;;;;5056305;28;20033;-71
2024/03/10 09:49:32;;;;;;;16.10;12.38;;;;;;;;;;5056264;28;20025;-71
2024/03/10 09:51:57;;;;;;;12.93;9.52;;;;;;;;;;5055940;28;20540;-71
2024/03/10 09:54:23;;;;;;;38.25;9.07;;;;;;;;;;5038391;28;20047;-70
2024/03/10 09:56:50;;;;;;;16.15;8.00;;;;;;;;;;5056073;28;20060;-71
2024/03/10 09:59:35;;;;;;;14.20;9.73;;;;;;;;;;5055711;28;20033;-71
2024/03/10 10:02:03;;;;;;;18.08;11.05;;;;;;;;;;5037316;28;20485;-71
2024/03/10 10:04:34;;;;;;;15.80;11.13;;;;;;;;;;5021307;28;20036;-71
2024/03/10 10:07:03;;;;;;;16.00;10.25;;;;;;;;;;5055944;28;20025;-71
2024/03/10 10:09:30;;;;;;;9.35;6.15;;;;;;;;;;5055806;28;20473;-70
2024/03/10 10:11:56;;;;;;;15.80;9.95;;;;;;;;;;5037656;28;20036;-70
2024/03/10 10:14:23;;;;;;;12.45;10.00;;;;;;;;;;5055780;28;20021;-70
2024/03/10 10:16:59;;;;;;;15.32;10.35;;;;;;;;;;5055711;28;20037;-70
2024/03/10 10:19:32;;;;;;;15.82;10.65;;;;;;;;;;5055588;28;20435;-70
2024/03/10 10:21:58;;;;;;;14.35;10.38;;;;;;;;;;5055033;28;20045;-71
2024/03/10 10:24:23;;;;;;;13.32;9.80;;;;;;;;;;5055298;28;20033;-71
2024/03/10 10:27:04;;;;;;;12.95;10.40;;;;;;;;;;5055521;28;20083;-71
2024/03/10 10:29:30;;;;;;;12.80;9.27;;;;;;;;;;5055506;28;20031;-71
2024/03/10 10:31:56;;;;;;;11.65;10.30;;;;;;;;;;5055160;28;20036;-70
2024/03/10 10:34:22;;;;;;;12.85;10.02;;;;;;;;;;5055100;28;20025;-70
2024/03/10 10:36:47;;;;;;;13.00;11.50;;;;;;;;;;5055355;28;20017;-71
2024/03/10 10:39:17;;;;;;;12.20;10.95;;;;;;;;;;5055222;28;20159;-71
2024/03/10 10:41:42;;;;;;;12.10;10.57;;;;;;;;;;5037101;28;20028;-71
2024/03/10 10:44:08;;;;;;;14.60;11.45;;;;;;;;;;5054580;28;20033;-71
2024/03/10 10:46:34;;;;;;;13.13;10.25;;;;;;;;;;5036983;28;20428;-70
2024/03/10 10:49:04;;;;;;;11.20;8.57;;;;;;;;;;5054846;28;20397;-70
2024/03/10 10:51:29;;;;;;;17.63;11.90;;;;;;;;;;5054871;28;20393;-70
2024/03/10 10:53:56;;;;;;;16.90;10.70;;;;;;;;;;5036836;28;20033;-70
2024/03/10 10:56:21;;;;;;;14.63;10.20;;;;;;;;;;5054972;28;20068;-71
2024/03/10 10:58:53;;;;;;;13.43;9.93;;;;;;;;;;5054513;28;20068;-71
2024/03/10 11:01:29;;;;;;;14.50;10.93;;;;;;;;;;5084270;22;20532;-62
2024/03/10 11:03:57;;;;;;;14.48;10.10;;;;;;;;;;5073229;28;20035;-62
2024/03/10 11:06:23;;;;;;;13.52;9.98;;;;;;;;;;5074523;28;20090;-62
2024/03/10 11:08:52;;;;;;;12.43;9.05;;;;;;;;;;5074423;28;20032;-62
2024/03/10 11:11:36;;;;;;;12.65;9.52;;;;;;;;;;5074661;28;20037;-62
2024/03/10 11:14:03;;;;;;;18.55;11.32;;;;;;;;;;5074644;28;20124;-62
2024/03/10 11:16:30;;;;;;;18.42;10.88;;;;;;;;;;5074511;28;20048;-64
2024/03/10 11:19:10;;;;;;;14.05;9.80;;;;;;;;;;5072929;28;20029;-62
2024/03/10 11:21:36;;;;;;;21.60;14.00;;;;;;;;;;5074416;28;20056;-62
2024/03/10 11:24:01;;;;;;;27.98;16.77;;;;;;;;;;5073275;28;20066;-62
2024/03/10 11:26:26;;;;;;;13.90;10.32;;;;;;;;;;5074043;28;20059;-64
2024/03/10 11:28:56;;;;;;;17.17;11.45;;;;;;;;;;5074653;28;20111;-62
2024/03/10 11:31:27;;;;;;;54.05;46.53;;;;;;;;;;5074102;28;20043;-62
2024/03/10 11:33:56;;;;;;;14.32;11.15;;;;;;;;;;5073120;28;20032;-71
2024/03/10 11:36:22;;;;;;;14.85;11.07;;;;;;;;;;5074534;28;20021;-71
2024/03/10 11:38:48;;;;;;;24.02;17.88;;;;;;;;;;5073894;28;20055;-71
2024/03/10 11:41:13;;;;;;;15.57;11.30;;;;;;;;;;5073903;28;20456;-71
2024/03/10 11:43:41;;;;;;;15.07;10.27;;;;;;;;;;5074433;28;20024;-71
2024/03/10 11:46:20;;;;;;;19.27;11.38;;;;;;;;;;5074102;28;20032;-71
2024/03/10 11:48:47;;;;;;;11.48;9.23;;;;;;;;;;5074058;28;20094;-71
2024/03/10 11:51:13;;;;;;;11.02;8.55;;;;;;;;;;5074320;28;20016;-71
2024/03/10 11:53:38;;;;;;;20.77;14.85;;;;;;;;;;5074288;28;20161;-71
2024/03/10 11:56:04;;;;;;;17.35;12.82;;;;;;;;;;5089339;28;20029;-71
2024/03/10 11:58:29;;;;;;;14.32;11.38;;;;;;;;;;5073931;28;20379;-71
2024/03/10 12:00:55;;;;;;;16.05;11.80;;;;;;;;;;5073467;28;20045;-71
2024/03/10 12:03:21;;;;;;;15.65;12.40;;;;;;;;;;5089318;28;20021;-71
2024/03/10 12:05:50;;;;;;;17.27;11.70;;;;;;;;;;5098800;22;20497;-62
2024/03/10 12:08:18;;;;;;;14.38;10.05;;;;;;;;;;5053806;28;20473;-63
2024/03/10 12:10:44;;;;;;;15.45;11.25;;;;;;;;;;5053502;28;20025;-62
2024/03/10 12:13:16;;;;;;;13.80;10.77;;;;;;;;;;5067717;22;20071;-72
2024/03/10 12:15:48;;;;;;;15.80;10.90;;;;;;;;;;5074071;28;20072;-71
2024/03/10 12:18:16;;;;;;;12.30;8.77;;;;;;;;;;5073802;28;20465;-71
2024/03/10 12:20:44;;;;;;;14.32;11.60;;;;;;;;;;5073720;28;20071;-71
2024/03/10 12:23:10;;;;;;;12.48;9.35;;;;;;;;;;5073623;28;20028;-71
2024/03/10 12:25:39;;;;;;;12.52;9.88;;;;;;;;;;5073346;28;20036;-71
2024/03/10 12:28:09;;;;;;;12.68;9.68;;;;;;;;;;5073569;28;20029;-71
2024/03/10 12:30:35;;;;;;;11.82;9.25;;;;;;;;;;5055317;28;20025;-71
2024/03/10 12:33:04;;;;;;;10.02;9.02;;;;;;;;;;5055631;28;20098;-71
2024/03/10 12:35:30;;;;;;;9.00;7.90;;;;;;;;;;5073308;28;20028;-71
2024/03/10 12:37:55;;;;;;;8.55;7.63;;;;;;;;;;5055629;28;20044;-71
2024/03/10 12:40:21;;;;;;;8.20;7.30;;;;;;;;;;5073490;28;20031;-73
2024/03/10 12:42:49;;;;;;;9.68;7.70;;;;;;;;;;5073170;28;20017;-72
2024/03/10 12:45:17;;;;;;;9.57;7.78;;;;;;;;;;5055206;28;20420;-71
2024/03/10 12:47:46;;;;;;;10.52;8.07;;;;;;;;;;5055301;28;20031;-71
2024/03/10 12:50:12;;;;;;;8.63;7.72;;;;;;;;;;5073458;28;20032;-71
2024/03/10 12:52:38;;;;;;;10.57;7.97;;;;;;;;;;5073087;28;20044;-71
2024/03/10 12:55:07;;;;;;;7.78;6.97;;;;;;;;;;5073091;28;20474;-71
2024/03/10 12:57:32;;;;;;;10.77;9.10;;;;;;;;;;5072990;28;20024;-71
2024/03/10 12:59:58;;;;;;;9.18;8.20;;;;;;;;;;5055426;28;20124;-71
2024/03/10 13:02:23;;;;;;;12.30;7.50;;;;;;;;;;5055082;28;20029;-71
2024/03/10 13:04:55;;;;;;;5.93;5.32;;;;;;;;;;5073013;28;20461;-63
2024/03/10 13:07:20;;;;;;;12.07;8.63;;;;;;;;;;5073958;28;20028;-62
2024/03/10 13:09:46;;;;;;;12.43;7.63;;;;;;;;;;5077252;28;20036;-62
2024/03/10 13:12:11;;;;;;;12.55;8.10;;;;;;;;;;5076500;28;20028;-62
2024/03/10 13:14:36;;;;;;;12.30;7.85;;;;;;;;;;5077164;28;20036;-62
2024/03/10 13:17:03;;;;;;;15.10;10.02;;;;;;;;;;5076588;28;20082;-62
2024/03/10 13:19:29;;;;;;;15.65;11.20;;;;;;;;;;5075155;28;20445;-62
2024/03/10 13:21:54;;;;;;;26.05;17.85;;;;;;;;;;5076789;28;20028;-62
2024/03/10 13:24:22;;;;;;;17.65;14.10;;;;;;;;;;5076743;28;20139;-62
2024/03/10 13:26:47;;;;;;;12.60;10.70;;;;;;;;;;5076950;28;20029;-62
2024/03/10 13:29:13;;;;;;;13.07;9.65;;;;;;;;;;5058371;28;20040;-62
2024/03/10 13:31:38;;;;;;;13.00;8.85;;;;;;;;;;5076292;28;20041;-62
2024/03/10 13:34:04;;;;;;;13.98;9.82;;;;;;;;;;5076832;28;20032;-62
2024/03/10 13:36:29;;;;;;;10.38;7.50;;;;;;;;;;5058239;28;20033;-62
2024/03/10 13:38:54;;;;;;;13.88;9.00;;;;;;;;;;5076119;28;20496;-62
2024/03/10 13:41:21;;;;;;;15.52;9.05;;;;;;;;;;5058318;28;20499;-63
2024/03/10 13:43:47;;;;;;;11.38;8.55;;;;;;;;;;5076385;28;20071;-62
2024/03/10 13:46:13;;;;;;;24.45;13.75;;;;;;;;;;5076074;28;20427;-63
2024/03/10 13:48:39;;;;;;;16.80;13.60;;;;;;;;;;5058135;28;20036;-62
2024/03/10 13:51:05;;;;;;;22.50;19.23;;;;;;;;;;5074717;28;20036;-62
2024/03/10 13:53:30;;;;;;;6.97;6.22;;;;;;;;;;5075914;28;20029;-62
2024/03/10 13:55:58;;;;;;;7.72;6.25;;;;;;;;;;5075844;28;20384;-62
2024/03/10 13:58:23;;;;;;;6.13;5.53;;;;;;;;;;5076045;28;20028;-62
2024/03/10 14:00:49;;;;;;;9.50;7.60;;;;;;;;;;5075766;28;20035;-62
2024/03/10 14:03:20;;;;;;;5.68;4.20;;;;;;;;;;5075976;28;20115;-71
2024/03/10 14:05:46;;;;;;;9.85;6.75;;;;;;;;;;5076250;28;20032;-68
2024/03/10 14:08:12;;;;;;;15.02;8.50;;;;;;;;;;5074340;28;20032;-72
2024/03/10 14:10:38;;;;;;;6.63;5.80;;;;;;;;;;5075347;28;20029;-67
2024/03/10 14:13:04;;;;;;;6.57;5.90;;;;;;;;;;5083199;28;20047;-74
2024/03/10 14:15:31;;;;;;;6.35;5.63;;;;;;;;;;5094486;28;20392;-74
2024/03/10 14:17:57;;;;;;;7.45;5.55;;;;;;;;;;5077404;28;20365;-73
2024/03/10 14:20:25;;;;;;;14.90;9.00;;;;;;;;;;5095457;28;20031;-74
2024/03/10 14:22:51;;;;;;;9.93;7.97;;;;;;;;;;5077919;28;20059;-74
2024/03/10 14:25:17;;;;;;;10.70;7.82;;;;;;;;;;5095795;28;20059;-74
2024/03/10 14:27:49;;;;;;;21.65;13.45;;;;;;;;;;5093700;28;20012;-74
2024/03/10 14:30:17;;;;;;;11.77;8.25;;;;;;;;;;5094230;28;20031;-74
2024/03/10 14:32:48;;;;;;;32.78;21.23;;;;;;;;;;5094875;28;20036;-74
2024/03/10 14:35:16;;;;;;;;;;;;;;;;;;5094856;28;20020;-74
2024/03/10 14:37:43;;;;;;;30.85;19.33;;;;;;;;;;5093589;28;19907;-73
2024/03/10 14:40:15;;;;;;;44.00;28.27;;;;;;;;;;5093715;28;20028;-64
2024/03/10 14:42:47;;;;;;;8.75;6.75;;;;;;;;;;5075752;28;20031;-64